Time;durP1;ratioP1;P1;durP2;ratioP2;P2;SDS_P1;SDS_P2;PMS_P1;PMS_P2;Temp;Humidity;BMP_temperature;BMP_pressure;BME280_temperature;BME280_humidity;BME280_pressure;Samples;Min_cycle;Max_cycle;Signal;HPM_P1;HPM_P2
2022/11/30 00:02:13;;;;;;;19.05;12.65;;;;;;;7.31;91.92;101162.84;5004435;28;20045;-91
2022/11/30 00:05:16;;;;;;;;;;;;;;;7.29;91.90;101151.63;4994603;28;20092;-90
2022/11/30 00:08:28;;;;;;;18.65;12.18;;;;;;;7.20;92.55;101160.50;4994352;28;19920;-90
2022/11/30 00:11:31;;;;;;;20.50;11.45;;;;;;;7.18;92.67;101157.97;4994202;28;20041;-91
2022/11/30 00:14:35;;;;;;;23.75;14.15;;;;;;;7.18;92.19;101157.97;4994250;28;20070;-90
2022/11/30 00:17:43;;;;;;;24.15;14.05;;;;;;;7.28;92.55;101152.53;4993757;28;20049;-90
2022/11/30 00:20:46;;;;;;;30.75;17.00;;;;;;;7.30;92.46;101158.50;4993267;28;20049;-90
2022/11/30 00:23:53;;;;;;;28.00;15.55;;;;;;;7.19;92.82;101159.66;4994061;28;20404;-90
2022/11/30 00:26:57;;;;;;;35.35;16.25;;;;;;;7.23;92.45;101153.47;4993587;28;20405;-89
2022/11/30 00:30:00;;;;;;;29.65;16.75;;;;;;;7.20;92.60;101157.91;4993810;28;20511;-89
2022/11/30 00:33:04;;;;;;;34.45;16.95;;;;;;;7.21;92.64;101162.22;4993806;28;20068;-89
2022/11/30 00:36:09;;;;;;;;;;;;;;;7.21;92.15;101167.41;4992935;28;20092;-89
2022/11/30 00:39:12;;;;;;;33.08;16.38;;;;;;;7.11;92.98;101166.81;4991875;28;19984;-89
2022/11/30 00:42:30;;;;;;;32.05;16.85;;;;;;;7.24;92.71;101162.13;4990614;28;20132;-89
2022/11/30 00:45:34;;;;;;;30.88;15.90;;;;;;;7.25;92.44;101165.59;4990950;28;20045;-89
2022/11/30 00:48:39;;;;;;;31.02;17.58;;;;;;;7.30;91.98;101159.34;4992430;28;20096;-89
2022/11/30 00:51:42;;;;;;;34.28;16.85;;;;;;;7.29;92.28;101169.81;4993362;28;20445;-89
2022/11/30 00:54:47;;;;;;;29.48;15.50;;;;;;;7.07;93.02;101159.16;5003976;28;20133;-89
2022/11/30 00:57:50;;;;;;;34.78;16.50;;;;;;;7.28;92.44;101162.91;4992780;28;20065;-89
2022/11/30 01:00:54;;;;;;;29.00;16.35;;;;;;;7.17;92.71;101161.44;4990184;28;20112;-89
2022/11/30 01:04:07;;;;;;;27.25;15.35;;;;;;;7.16;92.99;101169.31;4991637;28;20072;-89
2022/11/30 01:07:13;;;;;;;25.38;16.23;;;;;;;7.20;92.91;101165.72;4991898;28;20053;-90
2022/11/30 01:10:17;;;;;;;31.42;15.05;;;;;;;7.22;93.09;101164.78;4992475;28;20101;-90
2022/11/30 01:13:20;;;;;;;34.65;15.43;;;;;;;7.20;92.97;101163.13;4992961;28;20041;-88
2022/11/30 01:16:34;;;;;;;33.55;16.25;;;;;;;7.18;93.03;101165.78;4992204;28;20069;-89
2022/11/30 01:19:38;;;;;;;33.17;16.60;;;;;;;7.00;94.27;101171.47;5001942;28;20591;-89
2022/11/30 01:22:41;;;;;;;35.92;16.42;;;;;;;7.11;94.13;101164.22;4991909;28;20104;-89
2022/11/30 01:25:53;;;;;;;32.63;17.02;;;;;;;7.10;93.94;101164.28;4991317;28;20038;-88
2022/11/30 01:28:57;;;;;;;29.77;15.73;;;;;;;6.98;94.18;101165.47;4992355;28;20082;-88
2022/11/30 01:32:00;;;;;;;21.95;14.10;;;;;;;6.93;95.15;101163.00;4995691;28;20276;-88
2022/11/30 01:35:07;;;;;;;36.58;15.05;;;;;;;7.03;94.70;101166.19;4996883;28;20448;-89
2022/11/30 01:38:13;;;;;;;26.92;14.90;;;;;;;6.99;94.48;101165.44;4997328;28;20061;-89
2022/11/30 01:41:20;;;;;;;;;;;;;;;7.09;94.04;101157.38;4997265;28;20075;-88
2022/11/30 01:44:26;;;;;;;27.27;15.00;;;;;;;7.16;94.08;101164.97;4995667;28;19921;-88
2022/11/30 01:47:42;;;;;;;24.23;13.30;;;;;;;7.27;93.07;101156.00;4996087;28;20408;-89
2022/11/30 01:50:45;;;;;;;23.35;13.05;;;;;;;7.25;93.31;101152.59;4996937;28;20456;-90
2022/11/30 01:53:48;;;;;;;29.25;14.68;;;;;;;7.39;92.72;101155.66;5007344;28;20057;-90
2022/11/30 01:57:00;;;;;;;27.05;13.13;;;;;;;7.32;92.58;101154.97;4996521;28;20045;-89
2022/11/30 02:00:08;;;;;;;26.20;15.63;;;;;;;7.27;92.94;101158.59;4996145;28;20103;-89
2022/11/30 02:03:27;;;;;;;32.22;14.40;;;;;;;7.32;92.87;101160.19;4995534;28;20049;-89
2022/11/30 02:06:31;;;;;;;28.73;15.13;;;;;;;7.36;93.01;101156.59;4996703;28;20121;-90
2022/11/30 02:09:44;;;;;;;29.58;13.38;;;;;;;7.31;93.18;101160.22;4989547;28;20575;-90
2022/11/30 02:13:17;;;;;;;29.27;13.25;;;;;;;7.26;93.45;101164.69;4976723;28;20054;-89
2022/11/30 02:17:00;;;;;;;22.92;12.73;;;;;;;7.17;93.60;101165.81;4975764;28;20146;-90
2022/11/30 02:20:26;;;;;;;21.23;13.93;;;;;;;7.21;93.73;101165.69;4974318;28;20054;-88
2022/11/30 02:23:40;;;;;;;29.45;14.02;;;;;;;7.30;93.39;101166.31;4975245;28;20061;-89
2022/11/30 02:27:14;;;;;;;26.80;12.85;;;;;;;7.26;93.15;101169.91;4974288;28;20128;-89
2022/11/30 02:30:22;;;;;;;24.75;13.27;;;;;;;7.20;93.70;101166.56;4975196;28;20066;-89
2022/11/30 02:33:30;;;;;;;31.08;14.68;;;;;;;7.13;94.19;101170.25;4976025;28;20050;-90
2022/11/30 02:36:35;;;;;;;28.13;14.75;;;;;;;7.16;93.90;101162.34;4974912;28;20049;-89
2022/11/30 02:39:47;;;;;;;23.15;14.02;;;;;;;7.28;93.45;101161.16;4976106;28;20054;-89
2022/11/30 02:42:52;;;;;;;29.80;14.95;;;;;;;7.10;94.38;101169.47;4975725;28;20050;-90
2022/11/30 02:46:22;;;;;;;29.45;15.38;;;;;;;7.00;94.97;101174.06;4975224;28;20120;-90
2022/11/30 02:49:51;;;;;;;27.52;15.07;;;;;;;7.10;94.88;101169.47;4975187;28;20050;-90
2022/11/30 02:53:00;;;;;;;31.42;15.20;;;;;;;7.18;94.73;101168.38;4975018;28;20073;-90
2022/11/30 02:56:09;;;;;;;28.52;16.55;;;;;;;7.06;95.09;101178.28;4975592;28;20054;-90
2022/11/30 02:59:15;;;;;;;27.45;15.52;;;;;;;7.03;95.11;101173.16;4976014;28;20120;-89
2022/11/30 03:02:22;;;;;;;24.08;14.30;;;;;;;7.02;95.20;101179.22;4976040;28;20077;-89
2022/11/30 03:05:37;;;;;;;27.67;14.27;;;;;;;7.09;94.99;101175.59;4975496;28;20046;-88
2022/11/30 03:08:45;;;;;;;23.33;14.52;;;;;;;7.12;95.09;101173.75;4974139;28;20081;-89
2022/11/30 03:11:48;;;;;;;;;;;;;;;7.11;95.26;101171.16;4974837;28;20114;-89
2022/11/30 03:14:52;;;;;;;25.13;14.25;;;;;;;7.05;95.05;101177.41;4974121;28;19929;-89
2022/11/30 03:18:00;;;;;;;24.83;13.82;;;;;;;7.01;95.61;101173.19;4973277;28;20520;-89
2022/11/30 03:21:09;;;;;;;21.52;14.15;;;;;;;7.25;94.47;101170.81;4979662;28;20110;-89
2022/11/30 03:24:19;;;;;;;27.63;15.07;;;;;;;7.19;94.55;101172.69;4975211;28;20297;-88
2022/11/30 03:27:26;;;;;;;26.95;15.35;;;;;;;7.26;94.57;101168.16;4986106;28;20074;-88
2022/11/30 03:30:29;;;;;;;23.67;14.43;;;;;;;7.23;94.57;101165.63;4975536;28;20061;-90
2022/11/30 03:33:36;;;;;;;30.65;14.75;;;;;;;7.17;94.82;101171.84;4975865;28;20099;-90
2022/11/30 03:36:40;;;;;;;25.48;14.63;;;;;;;7.29;94.39;101167.22;4975660;28;20082;-90
2022/11/30 03:39:46;;;;;;;24.55;15.20;;;;;;;7.10;95.00;101167.72;4974697;28;20053;-90
2022/11/30 03:42:56;;;;;;;26.55;14.43;;;;;;;7.19;94.63;101170.06;4975696;28;20077;-90
2022/11/30 03:46:00;;;;;;;23.48;13.00;;;;;;;7.18;94.72;101176.19;4974951;28;20113;-89
2022/11/30 03:49:06;;;;;;;25.00;13.43;;;;;;;7.23;94.60;101182.09;4973959;28;20049;-90
2022/11/30 03:52:24;;;;;;;22.80;13.27;;;;;;;7.35;93.96;101173.09;4973004;28;20049;-90
2022/11/30 03:55:28;;;;;;;19.05;12.68;;;;;;;7.41;93.58;101175.53;4972245;28;20153;-91
2022/11/30 03:58:32;;;;;;;;;;;;;;;7.44;93.41;101166.78;4973904;28;20113;-89
2022/11/30 04:01:35;;;;;;;;;;;;;;;7.46;93.44;101170.19;4973880;28;19921;-89
2022/11/30 04:04:42;;;;;;;23.17;13.55;;;;;;;7.43;93.50;101162.47;4974459;28;20013;-89
2022/11/30 04:07:45;;;;;;;25.95;14.02;;;;;;;7.51;92.91;101164.84;4984937;28;20057;-89
2022/11/30 04:10:54;;;;;;;25.05;13.82;;;;;;;7.49;93.36;101167.47;4974074;28;20181;-89
2022/11/30 04:14:01;;;;;;;26.08;14.95;;;;;;;7.44;93.49;101167.63;4973578;28;20125;-89
2022/11/30 04:17:05;;;;;;;27.50;14.73;;;;;;;7.40;94.10;101167.75;4972732;28;20058;-89
2022/11/30 04:20:18;;;;;;;;;;;;;;;7.21;95.18;101168.28;4973378;28;20162;-89
2022/11/30 04:23:23;;;;;;;32.78;15.52;;;;;;;7.28;95.16;101181.13;4972713;28;19921;-89
2022/11/30 04:26:27;;;;;;;30.25;15.57;;;;;;;7.35;94.27;101175.69;4972782;28;20049;-89
2022/11/30 04:29:34;;;;;;;22.88;14.60;;;;;;;7.31;94.59;101175.84;4974319;28;20065;-90
2022/11/30 04:32:37;;;;;;;27.85;15.00;;;;;;;7.33;94.55;101171.44;4974431;28;20097;-88
2022/11/30 04:35:50;;;;;;;22.13;14.18;;;;;;;7.40;94.22;101179.03;4978942;28;20065;-89
2022/11/30 04:38:54;;;;;;;23.15;14.40;;;;;;;7.38;94.00;101185.16;4993548;28;20460;-90
2022/11/30 04:42:00;;;;;;;;;;;;;;;7.41;93.99;101190.28;4994102;28;20053;-88
2022/11/30 04:45:07;;;;;;;31.63;17.83;;;;;;;7.38;94.05;101180.81;4993788;28;19940;-90
2022/11/30 04:48:11;;;;;;;34.47;17.77;;;;;;;7.35;94.22;101190.47;4987630;28;20572;-88
2022/11/30 04:51:14;;;;;;;30.52;17.60;;;;;;;7.26;94.71;101188.13;4977341;28;20512;-86
2022/11/30 04:54:30;;;;;;;;;;;;;;;7.36;94.64;101184.34;4988976;28;20072;-88
2022/11/30 04:58:09;;;;;;;80.40;60.22;;;;;;;7.29;94.90;101190.63;4989995;28;19975;-89
2022/11/30 05:01:12;;;;;;;57.95;41.47;;;;;;;7.28;95.20;101194.13;4983708;28;20048;-88
2022/11/30 05:04:21;;;;;;;40.45;26.02;;;;;;;7.36;94.83;101195.59;4988396;28;20524;-91
2022/11/30 05:07:39;;;;;;;;;;;;;;;7.51;94.25;101199.53;4982297;28;20410;-87
2022/11/30 05:10:58;;;;;;;28.98;17.10;;;;;;;7.41;94.24;101196.34;4989655;28;19968;-88
2022/11/30 05:14:03;;;;;;;31.90;18.25;;;;;;;7.32;94.73;101196.59;5005552;28;20049;-90
2022/11/30 05:17:06;;;;;;;29.00;16.45;;;;;;;7.19;95.75;101193.47;5012221;28;20044;-84
2022/11/30 05:20:10;;;;;;;29.73;15.77;;;;;;;7.32;95.12;101188.78;5012824;28;20109;-87
2022/11/30 05:23:20;;;;;;;28.50;15.93;;;;;;;7.43;94.61;101184.16;5011159;28;20057;-88
2022/11/30 05:26:27;;;;;;;30.98;16.25;;;;;;;7.39;94.69;101184.25;4971478;28;20049;-88
2022/11/30 05:29:38;;;;;;;27.95;15.82;;;;;;;7.44;94.43;101185.00;4971551;28;20066;-90
2022/11/30 05:32:42;;;;;;;27.08;16.15;;;;;;;7.50;94.13;101183.94;4981652;28;20069;-87
2022/11/30 05:35:45;;;;;;;;;;;;;;;7.44;94.33;101183.25;4994982;28;20528;-90
2022/11/30 05:38:58;;;;;;;32.80;18.55;;;;;;;7.35;94.47;101175.69;4990908;28;19968;-88
2022/11/30 05:42:01;;;;;;;37.13;17.95;;;;;;;7.27;95.34;101187.22;4990521;28;20451;-88
2022/11/30 05:45:05;;;;;;;25.70;15.98;;;;;;;7.48;94.53;101188.38;4989979;28;20101;-88
2022/11/30 05:48:09;;;;;;;32.42;16.58;;;;;;;7.37;94.72;101193.84;4985233;28;20044;-87
2022/11/30 05:51:14;;;;;;;30.88;16.00;;;;;;;7.55;94.48;101193.34;4969737;28;20201;-86
2022/11/30 05:54:24;;;;;;;26.98;15.60;;;;;;;7.55;94.17;101192.47;4989331;28;20548;-87
2022/11/30 05:57:36;;;;;;;26.83;15.48;;;;;;;7.52;94.03;101197.78;5001595;28;20465;-87
2022/11/30 06:01:30;;;;;;;25.50;15.80;;;;;;;7.58;94.01;101202.81;4972654;28;20112;-87
2022/11/30 06:04:34;;;;;;;27.45;16.38;;;;;;;7.50;94.38;101207.38;4971750;28;20042;-87
2022/11/30 06:07:40;;;;;;;25.30;17.10;;;;;;;7.43;94.37;101209.28;4974222;28;20090;-87
2022/11/30 06:10:49;;;;;;;29.98;16.23;;;;;;;7.42;95.26;101199.78;4990766;28;20081;-87
2022/11/30 06:13:53;;;;;;;31.70;17.17;;;;;;;7.56;94.19;101204.59;4972068;28;20057;-87
2022/11/30 06:17:01;;;;;;;;;;;;;;;7.50;94.82;101208.25;4986966;28;20054;-87
2022/11/30 06:20:06;;;;;;;25.92;15.68;;;;;;;7.44;95.35;101201.47;4993477;28;19999;-87
2022/11/30 06:23:11;;;;;;;26.10;14.30;;;;;;;7.43;94.94;101199.75;4983803;28;20049;-87
2022/11/30 06:26:15;;;;;;;24.48;15.27;;;;;;;7.61;94.47;101207.91;4984908;28;20040;-87
2022/11/30 06:29:21;;;;;;;33.00;14.57;;;;;;;7.51;94.70;101204.72;4994675;28;20511;-89
2022/11/30 06:32:28;;;;;;;26.20;14.90;;;;;;;7.54;94.50;101206.41;4992949;28;20045;-90
2022/11/30 06:35:32;;;;;;;24.85;16.10;;;;;;;7.49;94.73;101203.06;5012133;28;20413;-89
2022/11/30 06:38:36;;;;;;;28.13;15.45;;;;;;;7.54;95.11;101207.25;4976006;28;20046;-90
2022/11/30 06:41:41;;;;;;;31.05;15.68;;;;;;;7.42;95.05;101208.44;4990384;28;20140;-89
2022/11/30 06:44:47;;;;;;;32.35;17.42;;;;;;;7.51;94.65;101212.53;4992796;28;20548;-88
2022/11/30 06:47:54;;;;;;;30.17;17.05;;;;;;;7.51;94.58;101211.69;4976862;28;20081;-90
2022/11/30 06:50:57;;;;;;;32.63;16.45;;;;;;;7.47;95.03;101213.53;4977833;28;20101;-90
2022/11/30 06:54:01;;;;;;;;;;;;;;;7.54;94.60;101216.81;4977900;28;20045;-90
2022/11/30 06:57:07;;;;;;;25.95;15.93;;;;;;;7.46;94.75;101210.06;4977727;28;20329;-90
2022/11/30 07:00:11;;;;;;;31.65;17.00;;;;;;;7.49;94.99;101223.88;4977333;28;20050;-91
2022/11/30 07:03:14;;;;;;;34.95;16.80;;;;;;;7.57;94.35;101217.56;4987560;28;20094;-91
2022/11/30 07:06:18;;;;;;;32.53;17.10;;;;;;;7.58;94.33;101224.47;4977064;28;20497;-89
2022/11/30 07:09:28;;;;;;;29.17;17.20;;;;;;;7.59;94.30;101220.97;4976515;28;20058;-83
2022/11/30 07:12:47;;;;;;;25.55;15.07;;;;;;;7.57;94.17;101224.53;4976842;28;20114;-86
2022/11/30 07:15:51;;;;;;;21.83;14.27;;;;;;;7.52;94.84;101226.41;4988764;28;20504;-86
2022/11/30 07:18:56;;;;;;;28.60;16.35;;;;;;;7.57;94.77;101235.78;4995013;28;20081;-85
2022/11/30 07:22:03;;;;;;;33.30;17.88;;;;;;;7.55;94.70;101236.72;4976296;28;20508;-89
2022/11/30 07:32:27;;;;;;;25.63;16.20;;;;;;;7.47;95.69;101247.38;4977604;28;20110;-92
2022/11/30 07:35:30;;;;;;;;;;;;;;;7.44;95.59;101250.06;4977149;28;20405;-91
2022/11/30 07:38:37;;;;;;;29.40;15.68;;;;;;;7.51;95.49;101254.19;4975866;28;19925;-85
2022/11/30 07:41:42;;;;;;;35.03;16.80;;;;;;;7.55;95.30;101249.75;4975549;28;20105;-85
2022/11/30 07:44:46;;;;;;;34.45;19.05;;;;;;;7.40;95.62;101251.88;4975344;28;20186;-88
2022/11/30 07:47:57;;;;;;;29.85;16.17;;;;;;;7.54;95.18;101259.31;4976221;28;20448;-89
2022/11/30 07:51:27;;;;;;;28.38;16.48;;;;;;;7.57;95.44;101248.81;4976391;28;20049;-88
2022/11/30 07:54:41;;;;;;;24.88;16.00;;;;;;;7.59;94.99;101251.34;4975982;28;20119;-86
2022/11/30 07:57:45;;;;;;;25.73;15.77;;;;;;;7.61;95.15;101255.63;4976256;28;20057;-87
2022/11/30 08:00:48;;;;;;;33.00;16.77;;;;;;;7.51;95.41;101254.19;4975778;28;20053;-87
2022/11/30 08:03:59;;;;;;;29.48;16.88;;;;;;;7.68;95.40;101251.09;4975667;28;20073;-87
2022/11/30 08:07:03;;;;;;;33.92;18.08;;;;;;;7.63;95.98;101248.63;4975689;28;20045;-87
2022/11/30 08:10:07;;;;;;;31.95;19.13;;;;;;;7.73;95.53;101253.59;4975460;28;20102;-88
2022/11/30 08:13:13;;;;;;;30.77;19.38;;;;;;;7.72;94.72;101252.69;4976338;28;20049;-87
2022/11/30 08:16:19;;;;;;;30.30;17.67;;;;;;;7.52;96.57;101253.28;4993503;28;20104;-89
2022/11/30 08:19:23;;;;;;;28.10;17.92;;;;;;;7.42;98.13;101259.63;4978024;28;20449;-94
2022/11/30 08:22:27;;;;;;;32.42;18.98;;;;;;;7.33;98.60;101252.91;4974843;28;20053;-96
2022/11/30 08:25:33;;;;;;;29.23;18.05;;;;;;;7.31;99.43;101259.09;4975404;28;20069;-96
2022/11/30 08:28:48;;;;;;;35.42;21.13;;;;;;;7.16;100.00;101258.59;4991413;28;20045;-96
2022/11/30 08:32:05;;;;;;;30.88;19.90;;;;;;;7.29;100.00;101259.13;4994406;28;20445;-96
2022/11/30 08:35:10;;;;;;;34.00;19.30;;;;;;;7.26;100.00;101260.94;4998344;28;20568;-95
2022/11/30 08:38:21;;;;;;;35.80;21.42;;;;;;;7.65;98.43;101259.84;5004529;28;20057;-96
2022/11/30 08:41:25;;;;;;;35.33;22.70;;;;;;;7.74;97.56;101260.47;5025253;22;20300;-78
2022/11/30 08:44:28;;;;;;;33.22;19.60;;;;;;;7.84;96.48;101254.09;5024275;28;20457;-78
2022/11/30 08:47:32;;;;;;;26.25;17.55;;;;;;;7.94;96.44;101258.13;5034737;28;20142;-82
2022/11/30 08:50:35;;;;;;;29.88;17.27;;;;;;;7.99;95.70;101261.47;5031099;28;20453;-80
2022/11/30 08:53:40;;;;;;;;;;;;;;;8.06;95.26;101260.38;5027739;28;20051;-80
2022/11/30 08:56:45;;;;;;;27.95;18.63;;;;;;;8.07;94.80;101266.44;5027490;28;20233;-80
2022/11/30 08:59:48;;;;;;;28.67;16.98;;;;;;;8.06;95.23;101262.97;5015269;28;20040;-79
2022/11/30 09:02:52;;;;;;;25.75;15.60;;;;;;;8.06;95.50;101267.34;5024024;28;20041;-79
2022/11/30 09:06:01;;;;;;;;;;;;;;;7.99;95.95;101279.69;5021516;28;20043;-80
2022/11/30 09:09:05;;;;;;;28.45;15.95;;;;;;;7.82;97.22;101269.78;5043457;28;19920;-80
2022/11/30 09:12:09;;;;;;;26.70;16.60;;;;;;;7.97;96.31;101276.28;5038260;28;20141;-78
2022/11/30 09:15:12;;;;;;;;;;;;;;;8.10;95.84;101284.56;5039709;28;20076;-80
2022/11/30 09:18:15;;;;;;;33.17;21.77;;;;;;;8.18;95.42;101281.75;5031306;28;19924;-79
2022/11/30 09:21:20;;;;;;;;;;;;;;;8.20;94.62;101279.94;5032193;28;20052;-79
2022/11/30 09:24:23;;;;;;;53.83;32.42;;;;;;;8.16;94.59;101274.81;5031309;28;19924;-78
2022/11/30 09:27:29;;;;;;;;;;;;;;;8.12;96.00;101278.44;5030463;28;20131;-78
2022/11/30 09:30:32;;;;;;;40.47;25.70;;;;;;;8.09;95.53;101283.72;5030769;28;20333;-79
2022/11/30 09:33:36;;;;;;;32.75;21.60;;;;;;;8.19;94.92;101275.66;5031497;28;20128;-79
2022/11/30 09:36:40;;;;;;;29.15;19.05;;;;;;;7.91;95.91;101282.53;5031430;28;20049;-78
2022/11/30 09:39:43;;;;;;;31.95;20.42;;;;;;;8.19;96.21;101283.47;5030674;28;20112;-79
2022/11/30 09:43:21;;;;;;;34.17;21.00;;;;;;;8.18;95.44;101273.94;5030004;28;20052;-79
2022/11/30 09:46:39;;;;;;;40.75;25.40;;;;;;;8.27;95.20;101278.88;5023285;28;20083;-80
2022/11/30 09:49:46;;;;;;;32.15;23.27;;;;;;;8.28;94.96;101272.75;5031068;28;20131;-80
2022/11/30 09:53:05;;;;;;;30.75;20.25;;;;;;;8.39;94.90;101275.91;5033910;28;20541;-80
2022/11/30 09:56:23;;;;;;;27.10;17.10;;;;;;;8.37;95.34;101275.09;5034047;28;20132;-79
2022/11/30 09:59:34;;;;;;;19.52;15.48;;;;;;;8.50;94.73;101272.97;5034602;28;20060;-79
2022/11/30 10:02:38;;;;;;;18.52;15.13;;;;;;;8.48;93.35;101275.63;5035207;28;20099;-79
2022/11/30 10:05:57;;;;;;;19.65;14.20;;;;;;;8.22;93.15;101275.56;5034990;28;20056;-79
2022/11/30 10:09:43;;;;;;;20.35;14.65;;;;;;;8.38;93.31;101263.78;5035066;28;20059;-79
2022/11/30 10:13:17;;;;;;;17.17;13.65;;;;;;;8.14;92.62;101276.66;5041192;28;20056;-79
2022/11/30 10:16:30;;;;;;;17.50;13.85;;;;;;;8.16;93.19;101285.25;5034915;28;20517;-79
2022/11/30 10:19:57;;;;;;;19.30;14.77;;;;;;;8.03;93.08;101280.47;5034658;28;20052;-79
2022/11/30 10:23:09;;;;;;;16.13;12.48;;;;;;;8.26;93.37;101279.75;5028483;28;20103;-79
2022/11/30 10:26:24;;;;;;;17.60;14.10;;;;;;;8.33;94.00;101276.94;5026888;28;20049;-79
2022/11/30 10:29:36;;;;;;;18.00;13.68;;;;;;;8.31;93.28;101272.66;5032707;28;20103;-79
2022/11/30 10:32:44;;;;;;;17.88;12.70;;;;;;;8.42;92.19;101274.97;5033834;28;20047;-79
2022/11/30 10:36:02;;;;;;;19.30;14.68;;;;;;;8.50;92.16;101280.81;5018667;28;20414;-79
2022/11/30 10:39:16;;;;;;;23.23;14.65;;;;;;;8.51;92.93;101275.53;5037235;28;20095;-79
2022/11/30 10:42:30;;;;;;;17.23;13.82;;;;;;;8.60;92.29;101274.38;5034881;28;20057;-79
2022/11/30 10:45:38;;;;;;;15.98;12.90;;;;;;;8.75;90.87;101268.69;5027577;28;20036;-79
2022/11/30 10:48:48;;;;;;;15.27;12.70;;;;;;;8.79;90.88;101269.44;5025506;28;20049;-79
2022/11/30 10:52:00;;;;;;;17.00;11.35;;;;;;;8.84;90.20;101276.22;5018060;28;20040;-80
2022/11/30 10:55:13;;;;;;;16.50;12.80;;;;;;;8.69;88.95;101265.44;5024090;28;20120;-80
2022/11/30 10:58:25;;;;;;;16.75;12.80;;;;;;;8.39;89.35;101275.91;5023304;28;20045;-80
2022/11/30 11:01:39;;;;;;;19.00;13.40;;;;;;;8.27;89.77;101265.84;5023609;28;20100;-79
2022/11/30 11:04:43;;;;;;;16.23;12.65;;;;;;;8.23;91.07;101264.22;5013352;28;20049;-79
2022/11/30 11:07:55;;;;;;;15.52;12.00;;;;;;;8.49;90.09;101266.91;5014323;28;20091;-79
2022/11/30 11:10:59;;;;;;;20.05;15.10;;;;;;;8.49;91.75;101261.72;5013823;28;20510;-79
2022/11/30 11:14:19;;;;;;;22.33;14.75;;;;;;;8.63;92.11;101263.00;5048278;28;20133;-79
2022/11/30 11:17:25;;;;;;;16.38;12.68;;;;;;;8.64;91.97;101260.34;5053881;28;20076;-79
2022/11/30 11:20:37;;;;;;;15.75;11.38;;;;;;;8.68;91.45;101261.97;5053499;28;20076;-79
2022/11/30 11:23:43;;;;;;;18.15;11.65;;;;;;;8.75;91.53;101262.63;5053450;28;20087;-79
2022/11/30 11:26:51;;;;;;;15.43;12.35;;;;;;;8.83;90.12;101260.59;5053389;28;20509;-78
2022/11/30 11:30:07;;;;;;;16.65;11.77;;;;;;;8.84;90.31;101260.56;5053438;28;20085;-79
2022/11/30 11:33:13;;;;;;;17.70;12.68;;;;;;;8.71;90.69;101259.25;5053222;28;20048;-79
2022/11/30 11:36:25;;;;;;;15.88;12.38;;;;;;;8.57;91.35;101257.09;5053187;28;20517;-79
2022/11/30 11:39:28;;;;;;;18.48;13.88;;;;;;;8.73;92.33;101261.81;5053191;28;20099;-79
2022/11/30 11:42:57;;;;;;;16.35;13.38;;;;;;;8.63;91.92;101263.00;5053234;28;20119;-78
2022/11/30 11:46:12;;;;;;;16.60;12.48;;;;;;;8.56;89.24;101258.00;5053073;28;20048;-79
2022/11/30 11:49:25;;;;;;;21.27;14.07;;;;;;;8.76;88.52;101264.31;5052272;28;20102;-79
2022/11/30 11:52:28;;;;;;;20.25;14.48;;;;;;;8.69;87.99;101268.03;5052208;28;20136;-79
2022/11/30 11:55:33;;;;;;;23.08;15.20;;;;;;;8.58;88.78;101261.41;5039006;28;20129;-79
2022/11/30 11:58:49;;;;;;;24.25;17.88;;;;;;;8.76;89.21;101259.09;5033002;28;20048;-78
2022/11/30 12:02:32;;;;;;;19.77;13.55;;;;;;;8.86;88.66;101260.50;5032967;28;20044;-78
2022/11/30 12:05:57;;;;;;;15.55;12.63;;;;;;;9.00;87.76;101257.44;5032711;28;20100;-78
2022/11/30 12:09:13;;;;;;;17.50;13.00;;;;;;;8.65;88.22;101256.84;5032700;28;20099;-79
2022/11/30 12:12:16;;;;;;;17.00;13.13;;;;;;;8.82;87.55;101254.53;5032805;28;20506;-79
2022/11/30 12:15:32;;;;;;;18.42;12.85;;;;;;;8.71;88.75;101251.44;5030661;28;20108;-79
2022/11/30 12:19:11;;;;;;;15.60;11.18;;;;;;;8.63;87.40;101244.78;5032656;28;20502;-77
2022/11/30 12:22:41;;;;;;;14.90;12.02;;;;;;;8.72;86.61;101244.47;5032370;28;20048;-81
2022/11/30 12:26:24;;;;;;;16.08;12.20;;;;;;;8.88;85.86;101243.06;5032118;28;20502;-77
2022/11/30 12:29:49;;;;;;;14.48;10.95;;;;;;;8.93;86.18;101245.50;5024797;28;20047;-79
2022/11/30 12:33:13;;;;;;;14.13;10.80;;;;;;;8.77;87.86;101248.59;5032073;28;20040;-77
2022/11/30 12:36:50;;;;;;;16.45;12.30;;;;;;;8.90;87.11;101250.81;5031949;28;20103;-76
2022/11/30 12:40:19;;;;;;;16.52;12.23;;;;;;;8.89;86.74;101254.34;5031928;28;20088;-78
2022/11/30 12:43:29;;;;;;;14.60;11.18;;;;;;;8.98;86.17;101249.66;5032003;28;20151;-77
2022/11/30 12:46:36;;;;;;;17.48;11.85;;;;;;;9.13;86.20;101244.81;5031854;28;20116;-78
2022/11/30 12:50:21;;;;;;;17.38;12.88;;;;;;;9.02;87.27;101238.19;5032220;28;20039;-78
2022/11/30 12:53:44;;;;;;;17.35;11.73;;;;;;;8.94;87.51;101245.44;5032018;28;20076;-78
2022/11/30 12:57:00;;;;;;;17.02;12.90;;;;;;;8.95;87.11;101252.38;5012295;28;20052;-77
2022/11/30 13:00:12;;;;;;;18.60;13.13;;;;;;;8.92;87.90;101260.28;5012157;28;20084;-79
2022/11/30 13:03:30;;;;;;;18.63;12.80;;;;;;;8.83;90.37;101255.38;5011757;28;20044;-80
2022/11/30 13:10:53;;;;;;;18.30;13.48;;;;;;;8.90;91.28;101251.66;5026851;28;20140;-77
2022/11/30 13:13:58;;;;;;;21.38;14.15;;;;;;;8.86;91.99;101247.44;5005848;28;20053;-80
2022/11/30 13:17:12;;;;;;;16.25;12.93;;;;;;;9.00;91.13;101247.84;5034878;28;20580;-80
2022/11/30 13:20:21;;;;;;;18.55;14.15;;;;;;;8.96;90.91;101251.44;5029792;28;20041;-79
2022/11/30 13:23:38;;;;;;;19.92;13.80;;;;;;;8.91;91.75;101245.56;5008170;28;20044;-79
2022/11/30 13:27:00;;;;;;;21.92;12.50;;;;;;;8.85;91.51;101253.59;5006753;28;20049;-79
2022/11/30 13:30:42;;;;;;;21.65;13.65;;;;;;;8.83;91.22;101250.16;5008153;28;20080;-78
2022/11/30 13:33:53;;;;;;;19.08;14.23;;;;;;;8.74;92.44;101245.25;5022017;28;20087;-78
2022/11/30 13:37:11;;;;;;;20.25;13.52;;;;;;;8.63;93.84;101249.97;5025953;28;20048;-78
2022/11/30 13:40:21;;;;;;;19.35;13.85;;;;;;;8.64;91.93;101249.06;5020752;28;20593;-79
2022/11/30 13:43:28;;;;;;;26.55;19.80;;;;;;;8.45;88.88;101256.63;5026869;28;20048;-76
2022/11/30 13:46:31;;;;;;;20.88;15.40;;;;;;;8.49;90.61;101258.25;5018207;28;20045;-77
2022/11/30 13:49:35;;;;;;;22.15;15.45;;;;;;;8.55;91.35;101252.81;5028173;28;20476;-76
2022/11/30 13:52:57;;;;;;;24.67;17.25;;;;;;;8.60;89.58;101254.38;5016939;28;20132;-76
2022/11/30 13:56:16;;;;;;;27.20;19.05;;;;;;;8.67;88.62;101246.38;5027715;28;20111;-76
2022/11/30 13:59:23;;;;;;;30.85;21.38;;;;;;;8.61;87.37;101248.28;5027604;28;20048;-78
2022/11/30 14:02:53;;;;;;;30.83;19.50;;;;;;;8.81;86.26;101252.00;5027252;28;20052;-77
2022/11/30 14:05:59;;;;;;;117.63;71.50;;;;;;;8.77;86.62;101251.22;5027326;28;20087;-76
2022/11/30 14:09:12;;;;;;;102.47;62.05;;;;;;;8.86;85.84;101250.06;5027852;28;20060;-77
2022/11/30 14:12:35;;;;;;;71.72;44.45;;;;;;;8.68;87.58;101261.09;5027669;28;20120;-79
2022/11/30 14:15:40;;;;;;;65.88;43.60;;;;;;;8.67;89.09;101254.19;5030742;28;20529;-78
2022/11/30 14:18:45;;;;;;;44.88;30.63;;;;;;;8.78;88.18;101259.91;5038913;28;20452;-78
2022/11/30 14:21:50;;;;;;;38.65;28.90;;;;;;;8.72;88.10;101258.34;5026543;28;20051;-79
2022/11/30 14:24:58;;;;;;;35.65;24.98;;;;;;;8.56;89.10;101262.38;5026181;28;20053;-77
2022/11/30 14:28:04;;;;;;;38.10;23.67;;;;;;;8.47;90.68;101263.50;5025978;28;20048;-78
2022/11/30 14:31:15;;;;;;;33.42;23.27;;;;;;;8.53;89.97;101271.13;5025152;28;20419;-78
2022/11/30 14:34:22;;;;;;;31.48;22.52;;;;;;;8.60;88.94;101275.22;5026779;28;20410;-79
2022/11/30 14:37:32;;;;;;;33.65;21.77;;;;;;;8.52;89.49;101272.03;5026354;28;20052;-77
2022/11/30 14:40:35;;;;;;;35.72;23.60;;;;;;;8.57;89.42;101272.72;5029500;28;20692;-77
2022/11/30 14:43:38;;;;;;;;;;;;;;;8.48;88.80;101274.78;5022289;28;20422;-77
2022/11/30 14:46:42;;;;;;;35.00;23.25;;;;;;;8.46;89.11;101279.19;5024750;28;19966;-77
2022/11/30 14:49:47;;;;;;;38.10;24.05;;;;;;;8.51;89.32;101288.56;5029603;28;20505;-77
2022/11/30 14:53:08;;;;;;;31.08;23.17;;;;;;;8.39;89.39;101286.31;5029334;28;20064;-77